PDT,Max TemperatureF,Mean TemperatureF,Min TemperatureF,Max Dew PointF,MeanDew PointF,Min DewpointF,Max Humidity, Mean Humidity, Min Humidity, Max Sea Level PressureIn, Mean Sea Level PressureIn, Min Sea Level PressureIn, Max VisibilityMiles, Mean VisibilityMiles, Min VisibilityMiles, Max Wind SpeedMPH, Mean Wind SpeedMPH, Max Gust SpeedMPH,PrecipitationIn, CloudCover, Events, WindDirDegrees
2013-5-1,57,38,18,29,21,14,100,60,19,30.63,30.56,30.41,10,10,10,14,3,16,0.00,0,,230
2013-5-2,66,45,24,37,28,22,81,51,20,30.63,30.47,30.26,10,10,7,9,2,18,0.00,0,,229
2013-5-3,71,57,42,42,37,33,76,51,26,30.27,30.23,30.18,10,10,10,13,5,17,T,4,,360
2013-5-4,72,55,38,42,34,29,92,57,22,30.30,30.20,30.09,10,10,10,22,8,29,T,1,,51
2013-5-5,78,60,41,34,31,26,67,42,16,30.11,29.98,29.87,10,10,10,22,10,30,0.00,0,,37
2013-5-6,83,62,40,41,33,24,71,42,12,29.91,29.83,29.73,10,10,9,13,5,16,0.00,0,,24
2013-5-7,85,61,37,45,39,33,85,51,17,29.89,29.84,29.78,10,10,10,13,3,16,0.00,0,,36
2013-5-8,83,66,49,52,43,38,83,54,24,30.00,29.95,29.90,10,10,10,12,4,17,0.00,0,,314
2013-5-9,85,65,45,49,44,36,86,52,17,30.08,30.03,29.98,10,10,10,14,3,17,0.00,0,,253
2013-5-10,86,64,42,51,44,39,82,52,22,30.17,30.11,30.06,10,10,10,10,3,,0.00,0,,98
2013-5-11,85,67,48,57,47,42,86,55,23,30.12,30.07,29.99,10,10,8,14,3,18,0.00,1,,186
2013-5-12,78,64,49,56,50,47,89,64,39,30.02,29.99,29.94,10,10,10,18,5,25,T,2,,228
2013-5-13,62,53,44,52,47,28,89,68,46,30.05,29.96,29.92,10,10,6,24,11,31,0.23,6,Rain,190
2013-5-14,61,47,33,37,33,27,89,59,29,30.17,30.12,30.06,10,10,10,13,4,22,0.00,0,,181
2013-5-15,65,48,30,41,34,29,92,61,29,30.12,30.03,29.93,10,10,8,17,4,24,T,2,Rain,232
2013-5-16,62,53,43,47,46,42,93,71,48,29.97,29.94,29.89,10,10,10,10,2,17,0.14,7,Rain,42
2013-5-17,69,54,38,47,44,38,100,68,35,29.93,29.89,29.84,10,10,10,20,5,23,0.01,2,,310
2013-5-18,59,53,47,49,44,42,83,70,57,30.14,30.05,29.94,10,10,7,14,7,16,0.04,8,Rain,160
2013-5-19,65,55,44,50,45,41,100,74,48,30.27,30.22,30.15,10,10,6,15,3,20,0.12,6,Rain,172
2013-5-20,72,55,37,49,43,37,100,68,36,30.28,30.14,29.89,10,9,1,10,3,16,0.00,0,,22
2013-5-21,75,58,40,48,44,38,96,65,34,29.86,29.72,29.56,10,10,8,33,8,41,0.23,4,Rain-Thunderstorm,199
2013-5-22,48,41,34,43,38,33,100,83,65,30.05,29.90,29.78,10,9,4,15,7,18,0.15,7,Rain,186
2013-5-23,59,46,34,39,35,31,97,71,36,30.05,30.02,29.96,10,10,9,10,5,,0.00,2,,11
2013-5-24,54,43,31,41,37,32,92,73,54,30.04,29.99,29.96,10,10,10,22,7,23,0.00,3,,197
2013-5-25,61,45,29,45,35,28,100,74,47,30.05,30.01,29.99,10,8,1,12,3,21,T,4,,34
2013-5-26,70,55,40,43,39,34,93,61,28,30.00,29.94,29.88,10,10,10,15,6,28,0.00,2,,339
2013-5-27,66,58,50,49,45,39,93,67,40,29.93,29.86,29.80,10,10,10,20,6,31,0.06,7,Rain,190
2013-5-28,63,56,49,52,48,46,96,76,56,29.84,29.81,29.78,10,9,2,21,4,26,0.14,8,Rain,190
2013-5-29,64,53,41,48,45,39,100,74,48,29.86,29.76,29.68,10,9,2,24,6,30,0.01,5,Rain,158
2013-5-30,63,52,40,46,42,37,93,68,42,30.12,30.00,29.87,10,10,10,18,7,23,0.00,6,,181
2013-5-31,66,51,36,43,38,35,92,63,34,30.28,30.24,30.14,10,10,10,16,4,21,0.00,3,,207